FV77 weather

Mhangura Airport
Mashonaland West Province, Zimbabwe

Public forecast

Using degrees Celsius for public forecast. Weather courtesy of forecast.io.

Closest aviation weather report (METAR) to Mhangura Airport

Closest report is Robert Gabriel Mugabe International Airport, 78.3 nm (145.1 km) SE. Retrieved 2019/10/18 12:00 UTC (1 hour ago):

FVRG 181200Z 10007KT 040V160 CAVOK 28/00 Q1020 NOSIG

Closest aviation forecast (TAF) to Mhangura Airport

Closest forecast is Robert Gabriel Mugabe International Airport, 78.3 nm (145.1 km) SE. Retrieved 2019/10/18 12:00 UTC (1 hour ago):

TAF FVRG 181000Z 1812/1918 06008KT CAVOK